createdAt,value
2023-04-22T00:08:21.318Z,5.6
2023-04-22T00:18:22.092Z,4.9
2023-04-22T00:28:22.253Z,4.8
2023-04-22T00:38:23.337Z,5.3
2023-04-22T00:48:24.764Z,4.1
2023-04-22T00:58:24.824Z,5.2
2023-04-22T01:08:25.557Z,5.9
2023-04-22T01:18:25.355Z,5.6
2023-04-22T01:28:25.333Z,5.6
2023-04-22T01:38:25.115Z,5.5
2023-04-22T01:48:25.475Z,5.4
2023-04-22T01:58:25.548Z,5.9
2023-04-22T02:08:25.601Z,6.6
2023-04-22T02:18:26.198Z,6.2
2023-04-22T02:28:27.273Z,6.1
2023-04-22T02:38:27.159Z,6.6
2023-04-22T02:48:26.611Z,5.8
2023-04-22T02:58:27.237Z,5.7
2023-04-22T03:08:08.294Z,5.6
2023-04-22T03:18:09.740Z,5.8
2023-04-22T03:28:10.087Z,5.8
2023-04-22T03:38:11.215Z,5.7
2023-04-22T03:48:10.878Z,6.2
2023-04-22T03:58:11.166Z,5.6
2023-04-22T04:08:17.908Z,4.4
2023-04-22T04:18:30.654Z,3.8
2023-04-22T04:28:47.517Z,0.1
2023-04-22T04:39:02.542Z,4.7
2023-04-22T04:49:18.834Z,5.3
2023-04-22T04:59:34.815Z,6.5
2023-04-22T05:09:50.574Z,7.9
2023-04-22T05:20:06.281Z,-0.3
2023-04-22T05:30:21.735Z,5.5
2023-04-22T05:40:38.071Z,8
2023-04-22T05:50:53.933Z,7.9
2023-04-22T06:01:09.586Z,9.6
2023-04-22T06:11:27.142Z,2.1
2023-04-22T06:21:43.350Z,10.3
2023-04-22T06:32:00.691Z,12.2
2023-04-22T06:42:17.893Z,14.2
2023-04-22T06:52:36.036Z,4.4
2023-04-22T07:02:54.016Z,13.9
2023-04-22T07:13:11.118Z,15.8
2023-04-22T07:23:30.766Z,18
2023-04-22T07:33:45.906Z,20.2
2023-04-22T07:44:00.846Z,22.4
2023-04-22T07:54:15.934Z,24.9
2023-04-22T08:04:31.504Z,19.4
2023-04-22T08:14:47.957Z,24.4
2023-04-22T08:25:08.566Z,16.4
2023-04-22T08:35:24.735Z,21.6
2023-04-22T08:45:40.932Z,11
2023-04-22T08:55:58.113Z,29.4
2023-04-22T09:08:23.600Z,23.1
2023-04-22T09:18:42.335Z,18.3
2023-04-22T09:28:58.436Z,26.3
2023-04-22T09:39:19.992Z,27.9
2023-04-22T09:49:40.175Z,22.5
2023-04-22T10:00:00.700Z,20.3
2023-04-22T10:10:22.306Z,21.4
2023-04-22T10:20:43.680Z,13.2
2023-04-22T10:31:04.977Z,15.5
2023-04-22T10:41:26.261Z,13.1
2023-04-22T10:51:47.126Z,11
2023-04-22T11:02:08.147Z,12.6
2023-04-22T11:12:27.991Z,13.8
2023-04-22T11:22:46.441Z,16.5
2023-04-22T11:33:02.584Z,16.2
2023-04-22T11:43:15.480Z,17.7
2023-04-22T11:53:31.089Z,16.1
2023-04-22T12:03:46.360Z,12.6
2023-04-22T12:14:01.421Z,14.6
2023-04-22T12:24:17.057Z,15.1
2023-04-22T12:34:29.225Z,11.9
2023-04-22T12:44:39.645Z,17.3
2023-04-22T12:54:53.395Z,11.1
2023-04-22T13:05:02.081Z,11.9
2023-04-22T13:15:05.391Z,16.1
2023-04-22T13:25:12.024Z,9.2
2023-04-22T13:35:16.892Z,9.2
2023-04-22T13:45:23.000Z,10.1
2023-04-22T13:55:32.801Z,9.5
2023-04-22T14:05:38.646Z,10.6
2023-04-22T14:15:45.948Z,14.2
2023-04-22T14:25:54.752Z,10.2
2023-04-22T14:35:55.556Z,16.3
2023-04-22T14:45:56.572Z,15.9
2023-04-22T14:55:57.237Z,15.1
2023-04-22T15:08:09.553Z,7.3
2023-04-22T15:18:12.878Z,6.6
2023-04-22T15:28:15.547Z,16.3
2023-04-22T15:38:16.859Z,16.6
2023-04-22T15:48:16.163Z,15.2
2023-04-22T15:58:15.686Z,15.4
2023-04-22T16:08:16.101Z,15.3
2023-04-22T16:18:17.264Z,13.8
2023-04-22T16:28:17.739Z,13.3
2023-04-22T16:38:18.803Z,14.3
2023-04-22T16:48:21.804Z,13.1
2023-04-22T16:58:24.413Z,5.5
2023-04-22T17:08:23.988Z,12.5
2023-04-22T17:18:25.881Z,12.1
2023-04-22T17:28:26.274Z,11.4
2023-04-22T17:38:26.798Z,10.9
2023-04-22T17:48:28.828Z,4.6
2023-04-22T17:58:30.915Z,4
2023-04-22T18:08:31.981Z,10.3
2023-04-22T18:18:32.419Z,10.3
2023-04-22T18:28:32.466Z,9.8
2023-04-22T18:38:34.798Z,2.7
2023-04-22T18:48:35.371Z,9.6
2023-04-22T18:58:35.627Z,9.8
2023-04-22T19:08:36.707Z,5
2023-04-22T19:18:36.110Z,9.1
2023-04-22T19:28:36.522Z,8.4
2023-04-22T19:38:36.400Z,9.4
2023-04-22T19:48:35.294Z,8.9
2023-04-22T19:58:36.642Z,8.3
2023-04-22T20:08:37.023Z,8.7
2023-04-22T20:18:37.423Z,3.1
2023-04-22T20:28:37.105Z,8.3
2023-04-22T20:38:36.924Z,7.9
2023-04-22T20:48:36.977Z,3.4
2023-04-22T20:58:37.327Z,7.8
2023-04-22T21:08:07.077Z,7.9
2023-04-22T21:18:07.206Z,9
2023-04-22T21:28:07.881Z,8.1
2023-04-22T21:38:08.620Z,7.9
2023-04-22T21:48:09.002Z,9.3
2023-04-22T21:58:08.660Z,7.7
2023-04-22T22:08:09.643Z,7.7
2023-04-22T22:18:11.113Z,7.9
2023-04-22T22:28:12.743Z,8.4
2023-04-22T22:38:14.531Z,7.6
2023-04-22T22:48:16.622Z,8
2023-04-22T22:58:18.467Z,7.4
2023-04-22T23:08:19.180Z,6.8
2023-04-22T23:18:19.493Z,8.5
2023-04-22T23:28:19.950Z,2.1
2023-04-22T23:38:20.062Z,7.6
2023-04-22T23:48:19.915Z,7.7
2023-04-22T23:58:20.778Z,0.3
